createdAt,value
2022-10-06T00:01:55.758Z,2.88
2022-10-06T00:04:29.199Z,2.20
2022-10-06T00:07:03.039Z,3.00
2022-10-06T00:09:37.345Z,2.10
2022-10-06T00:12:06.314Z,2.80
2022-10-06T00:14:47.064Z,2.80
2022-10-06T00:17:15.001Z,2.83
2022-10-06T00:19:48.980Z,2.88
2022-10-06T00:22:23.031Z,2.80
2022-10-06T00:24:50.204Z,3.00
2022-10-06T00:27:25.063Z,2.40
2022-10-06T00:29:59.154Z,2.67
2022-10-06T00:32:33.984Z,2.33
2022-10-06T00:35:08.246Z,2.03
2022-10-06T00:37:38.418Z,2.60
2022-10-06T00:40:18.647Z,2.20
2022-10-06T00:43:11.082Z,1.98
2022-10-06T00:45:46.440Z,2.25
2022-10-06T00:48:29.346Z,2.15
2022-10-06T00:50:59.078Z,2.10
2022-10-06T00:53:36.007Z,2.03
2022-10-06T00:56:03.647Z,2.65
2022-10-06T00:58:39.306Z,2.35
2022-10-06T01:01:21.422Z,2.10
2022-10-06T01:04:04.043Z,2.30
2022-10-06T01:06:49.088Z,1.83
2022-10-06T01:09:17.674Z,1.90
2022-10-06T01:12:02.532Z,1.73
2022-10-06T01:14:30.543Z,2.08
2022-10-06T01:17:10.083Z,2.08
2022-10-06T01:20:04.679Z,1.85
2022-10-06T01:22:51.009Z,1.98
2022-10-06T01:25:20.063Z,2.03
2022-10-06T01:28:00.389Z,1.60
2022-10-06T01:30:31.925Z,1.77
2022-10-06T01:33:06.993Z,1.27
2022-10-06T01:35:34.358Z,1.77
2022-10-06T01:38:08.428Z,1.77
2022-10-06T01:40:36.237Z,2.15
2022-10-06T01:43:11.238Z,1.45
2022-10-06T01:45:39.043Z,2.10
2022-10-06T01:48:06.839Z,1.70
2022-10-06T01:50:41.713Z,1.90
2022-10-06T01:53:09.268Z,1.40
2022-10-06T01:55:43.010Z,1.35
2022-10-06T01:58:12.167Z,1.98
2022-10-06T02:00:47.958Z,2.10
2022-10-06T02:03:28.047Z,1.35
2022-10-06T02:05:57.355Z,1.50
2022-10-06T02:08:31.511Z,1.42
2022-10-06T02:10:59.146Z,2.10
2022-10-06T02:13:28.192Z,1.67
2022-10-06T02:16:06.196Z,1.42
2022-10-06T02:18:34.614Z,1.63
2022-10-06T02:21:12.278Z,1.58
2022-10-06T02:23:39.942Z,1.50
2022-10-06T02:26:16.509Z,2.00
2022-10-06T02:28:45.154Z,1.30
2022-10-06T02:31:21.142Z,1.60
2022-10-06T02:33:55.194Z,1.42
2022-10-06T02:36:30.206Z,1.33
2022-10-06T02:38:58.316Z,1.58
2022-10-06T02:41:33.039Z,1.27
2022-10-06T02:44:07.089Z,1.50
2022-10-06T02:46:34.733Z,1.23
2022-10-06T02:49:09.117Z,1.52
2022-10-06T02:51:36.234Z,1.50
2022-10-06T02:54:10.139Z,2.13
2022-10-06T02:56:38.815Z,1.85
2022-10-06T02:59:21.935Z,1.65
2022-10-06T03:01:49.456Z,1.58
2022-10-06T03:04:23.449Z,1.40
2022-10-06T03:06:57.089Z,1.40
2022-10-06T03:09:24.340Z,1.45
2022-10-06T03:11:52.065Z,1.70
2022-10-06T03:14:26.151Z,1.52
2022-10-06T03:16:55.046Z,1.38
2022-10-06T03:19:29.081Z,2.17
2022-10-06T03:21:56.927Z,1.20
2022-10-06T03:24:31.015Z,1.38
2022-10-06T03:26:58.711Z,2.00
2022-10-06T03:29:32.130Z,1.48
2022-10-06T03:32:07.144Z,1.35
2022-10-06T03:34:41.104Z,1.60
2022-10-06T03:37:15.150Z,1.40
2022-10-06T03:39:42.511Z,1.63
2022-10-06T03:42:16.080Z,1.35
2022-10-06T03:44:43.265Z,1.60
2022-10-06T03:47:17.712Z,1.85
2022-10-06T03:49:52.114Z,1.50
2022-10-06T03:52:22.414Z,1.73
2022-10-06T03:55:00.172Z,1.50
2022-10-06T03:57:35.546Z,1.40
2022-10-06T04:00:10.626Z,1.30
2022-10-06T04:05:19.437Z,1.40
2022-10-06T04:07:48.250Z,1.67
2022-10-06T04:10:22.205Z,1.30
2022-10-06T04:12:56.117Z,1.65
2022-10-06T04:15:30.082Z,1.58
2022-10-06T04:18:04.245Z,1.92
2022-10-06T04:20:31.344Z,1.40
2022-10-06T04:23:05.036Z,1.40
2022-10-06T04:25:40.059Z,1.60
2022-10-06T04:28:07.326Z,1.30
2022-10-06T04:30:41.060Z,1.52
2022-10-06T04:33:15.269Z,1.48
2022-10-06T04:35:49.502Z,1.63
2022-10-06T04:38:16.610Z,1.70
2022-10-06T04:40:50.030Z,1.63
2022-10-06T04:43:17.355Z,1.70
2022-10-06T04:45:51.187Z,1.42
2022-10-06T04:48:25.523Z,1.88
2022-10-06T04:50:57.805Z,2.00
2022-10-06T04:53:33.070Z,1.50
2022-10-06T04:56:14.225Z,1.85
2022-10-06T04:58:53.102Z,1.75
2022-10-06T05:01:28.299Z,1.80
2022-10-06T05:04:04.213Z,1.95
2022-10-06T05:06:41.003Z,2.20
2022-10-06T05:09:20.089Z,2.00
2022-10-06T05:11:49.343Z,1.90
2022-10-06T05:14:23.051Z,1.70
2022-10-06T05:16:50.311Z,1.67
2022-10-06T05:19:24.190Z,2.47
2022-10-06T05:21:51.481Z,2.35
2022-10-06T05:24:30.030Z,1.98
2022-10-06T05:27:01.742Z,2.08
2022-10-06T05:29:36.110Z,1.85
2022-10-06T05:32:10.137Z,2.20
2022-10-06T05:34:39.485Z,2.20
2022-10-06T05:37:13.163Z,2.22
2022-10-06T05:39:47.185Z,2.03
2022-10-06T05:42:26.245Z,2.05
2022-10-06T05:44:56.631Z,2.03
2022-10-06T05:47:30.035Z,2.03
2022-10-06T05:49:58.913Z,2.00
2022-10-06T05:52:33.341Z,1.95
2022-10-06T05:55:00.457Z,2.03
2022-10-06T05:57:35.211Z,1.95
2022-10-06T06:00:09.165Z,1.98
2022-10-06T06:02:42.908Z,1.33
2022-10-06T06:05:17.299Z,1.80
2022-10-06T06:07:44.525Z,1.85
2022-10-06T06:10:18.775Z,1.77
2022-10-06T06:12:48.306Z,1.33
2022-10-06T06:15:40.136Z,1.88
2022-10-06T06:18:14.051Z,2.78
2022-10-06T06:20:47.998Z,2.17
2022-10-06T06:23:15.760Z,2.00
2022-10-06T06:25:51.410Z,1.77
2022-10-06T06:28:25.204Z,2.95
2022-10-06T06:31:04.000Z,1.95
2022-10-06T06:33:39.146Z,2.35
2022-10-06T06:38:48.232Z,1.80
2022-10-06T06:41:34.093Z,1.40
2022-10-06T06:44:01.998Z,2.25
2022-10-06T06:46:39.178Z,1.80
2022-10-06T06:49:07.361Z,2.13
2022-10-06T06:51:44.256Z,2.35
2022-10-06T06:54:20.097Z,2.33
2022-10-06T06:56:49.082Z,2.70
2022-10-06T06:59:24.117Z,1.70
2022-10-06T07:01:58.818Z,1.70
2022-10-06T07:04:40.066Z,1.48
2022-10-06T07:07:07.182Z,1.80
2022-10-06T07:09:41.497Z,1.70
2022-10-06T07:12:11.700Z,1.20
2022-10-06T07:15:05.061Z,1.45
2022-10-06T07:17:58.457Z,1.42
2022-10-06T07:20:44.194Z,1.20
2022-10-06T07:23:44.024Z,1.40
2022-10-06T07:26:11.653Z,1.30
2022-10-06T07:28:45.123Z,1.15
2022-10-06T07:31:12.846Z,1.40
2022-10-06T07:33:48.182Z,1.50
2022-10-06T07:36:16.570Z,1.25
2022-10-06T07:38:50.027Z,1.10
2022-10-06T07:41:19.701Z,0.95
2022-10-06T07:43:54.077Z,1.10
2022-10-06T07:46:21.306Z,1.05
2022-10-06T07:48:56.167Z,0.98
2022-10-06T07:51:27.782Z,1.40
2022-10-06T07:54:02.149Z,1.10
2022-10-06T07:56:29.402Z,1.15
2022-10-06T07:59:05.241Z,1.52
2022-10-06T08:01:39.407Z,1.50
2022-10-06T08:04:13.151Z,1.20
2022-10-06T08:06:42.382Z,1.30
2022-10-06T08:09:16.153Z,1.08
2022-10-06T08:11:45.385Z,1.23
2022-10-06T08:14:22.181Z,1.33
2022-10-06T08:16:49.302Z,1.08
2022-10-06T08:19:25.077Z,1.38
2022-10-06T08:21:52.599Z,1.50
2022-10-06T08:24:33.824Z,1.20
2022-10-06T08:27:16.061Z,1.15
2022-10-06T08:29:43.327Z,1.90
2022-10-06T08:32:17.392Z,1.60
2022-10-06T08:34:44.634Z,1.83
2022-10-06T08:37:20.442Z,1.60
2022-10-06T08:39:54.196Z,1.45
2022-10-06T08:42:49.091Z,1.33
2022-10-06T08:45:33.977Z,1.67
2022-10-06T08:48:27.167Z,2.10
2022-10-06T08:51:06.710Z,1.90
2022-10-06T08:54:05.147Z,2.22
2022-10-06T08:56:57.579Z,2.28
2022-10-06T08:59:32.182Z,2.00
2022-10-06T09:02:46.132Z,1.45
2022-10-06T09:05:19.606Z,1.92
2022-10-06T09:08:31.167Z,2.08
2022-10-06T09:11:34.231Z,1.92
2022-10-06T09:14:21.176Z,1.30
2022-10-06T09:17:01.161Z,1.48
2022-10-06T09:20:17.372Z,1.30
2022-10-06T09:22:53.187Z,1.90
2022-10-06T09:25:35.222Z,1.80
2022-10-06T09:28:03.827Z,1.83
2022-10-06T09:30:38.464Z,1.52
2022-10-06T09:33:14.111Z,1.50
2022-10-06T09:36:16.038Z,1.52
2022-10-06T09:39:02.148Z,1.80
2022-10-06T09:41:49.159Z,1.63
2022-10-06T09:44:36.072Z,1.20
2022-10-06T09:47:33.343Z,1.40
2022-10-06T09:50:30.131Z,1.40
2022-10-06T09:53:09.012Z,0.93
2022-10-06T09:55:47.357Z,1.52
2022-10-06T09:58:22.702Z,1.13
2022-10-06T10:01:15.099Z,1.08
2022-10-06T10:06:47.120Z,1.10
2022-10-06T10:09:30.658Z,1.40
2022-10-06T10:12:25.062Z,1.05
2022-10-06T10:15:04.074Z,0.98
2022-10-06T10:18:14.486Z,1.10
2022-10-06T10:20:59.187Z,0.75
2022-10-06T10:23:43.330Z,0.68
2022-10-06T10:26:47.920Z,0.70
2022-10-06T10:29:47.098Z,0.60
2022-10-06T10:32:22.789Z,0.82
2022-10-06T10:35:29.260Z,0.90
2022-10-06T10:38:14.409Z,0.70
2022-10-06T10:40:56.298Z,0.80
2022-10-06T10:43:44.203Z,0.60
2022-10-06T10:46:27.752Z,0.85
2022-10-06T10:49:12.024Z,0.90
2022-10-06T10:51:59.345Z,1.13
2022-10-06T10:54:46.190Z,1.08
2022-10-06T10:57:17.312Z,0.90
2022-10-06T11:00:14.234Z,1.00
2022-10-06T11:02:55.299Z,0.90
2022-10-06T11:05:29.083Z,1.08
2022-10-06T11:08:50.188Z,0.98
2022-10-06T11:11:53.859Z,1.00
2022-10-06T11:14:57.238Z,1.10
2022-10-06T11:17:46.849Z,1.00
2022-10-06T11:20:51.101Z,0.90
2022-10-06T11:23:35.499Z,1.05
2022-10-06T11:26:40.306Z,1.60
2022-10-06T11:29:35.477Z,0.98
2022-10-06T11:32:21.177Z,1.20
2022-10-06T11:34:50.214Z,1.10
2022-10-06T11:37:54.294Z,1.17
2022-10-06T11:41:00.137Z,1.40
2022-10-06T11:43:45.368Z,1.00
2022-10-06T11:50:01.392Z,1.38
2022-10-06T11:52:35.222Z,0.93
2022-10-06T11:55:26.396Z,1.00
2022-10-06T12:01:11.229Z,0.98
2022-10-06T12:04:01.241Z,1.05
2022-10-06T12:06:43.978Z,0.80
2022-10-06T12:09:34.397Z,0.85
2022-10-06T12:12:29.670Z,0.65
2022-10-06T12:18:53.242Z,0.93
2022-10-06T12:21:36.378Z,0.77
2022-10-06T12:24:44.346Z,1.00
2022-10-06T12:27:45.467Z,1.10
2022-10-06T12:30:25.025Z,0.93
2022-10-06T12:33:00.177Z,0.80
2022-10-06T12:35:44.283Z,0.77
2022-10-06T12:39:12.254Z,0.88
2022-10-06T12:42:03.392Z,0.70
2022-10-06T12:44:40.280Z,0.85
2022-10-06T12:47:44.370Z,0.60
2022-10-06T12:50:22.809Z,0.82
2022-10-06T12:53:28.244Z,0.68
2022-10-06T12:56:03.187Z,0.50
2022-10-06T12:58:39.210Z,0.73
2022-10-06T13:01:27.314Z,0.68
2022-10-06T13:04:02.139Z,0.90
2022-10-06T13:09:20.349Z,0.70
2022-10-06T13:11:49.563Z,0.98
2022-10-06T13:14:23.224Z,0.90
2022-10-06T13:17:02.533Z,0.90
2022-10-06T13:19:31.173Z,1.10
2022-10-06T13:22:09.149Z,1.30
2022-10-06T13:24:36.599Z,0.80
2022-10-06T13:27:10.235Z,1.13
2022-10-06T13:29:37.469Z,1.00
2022-10-06T13:32:23.239Z,0.68
2022-10-06T13:34:51.089Z,0.73
2022-10-06T13:37:26.146Z,0.77
2022-10-06T13:39:53.615Z,1.08
2022-10-06T13:42:30.388Z,1.27
2022-10-06T13:45:02.427Z,1.05
2022-10-06T13:47:37.213Z,1.13
2022-10-06T13:52:46.218Z,1.40
2022-10-06T13:55:32.265Z,1.30
2022-10-06T13:58:03.413Z,1.27
2022-10-06T14:00:55.268Z,0.80
2022-10-06T14:06:24.302Z,0.90
2022-10-06T14:08:58.093Z,1.00
2022-10-06T14:11:36.312Z,0.95
2022-10-06T14:14:06.349Z,0.90
2022-10-06T14:16:40.274Z,1.00
2022-10-06T14:19:07.824Z,1.17
2022-10-06T14:21:53.305Z,0.88
2022-10-06T14:24:34.486Z,0.95
2022-10-06T14:27:11.063Z,0.93
2022-10-06T14:29:45.695Z,0.88
2022-10-06T14:32:24.334Z,0.80
2022-10-06T14:34:51.575Z,0.60
2022-10-06T14:37:19.224Z,0.90
2022-10-06T14:39:54.507Z,0.85
2022-10-06T14:42:24.945Z,1.02
2022-10-06T14:44:58.442Z,0.80
2022-10-06T14:47:26.045Z,0.70
2022-10-06T14:50:00.416Z,0.80
2022-10-06T14:52:34.234Z,1.45
2022-10-06T14:55:01.766Z,0.70
2022-10-06T14:57:36.309Z,0.68
2022-10-06T15:00:07.765Z,1.02
2022-10-06T15:02:48.326Z,0.80
2022-10-06T15:05:29.237Z,1.10
2022-10-06T15:08:12.572Z,0.82
2022-10-06T15:10:46.338Z,1.35
2022-10-06T15:13:13.557Z,1.10
2022-10-06T15:15:47.615Z,1.10
2022-10-06T15:18:22.191Z,1.00
2022-10-06T15:20:49.823Z,1.00
2022-10-06T15:23:24.313Z,0.80
2022-10-06T15:26:20.222Z,0.90
2022-10-06T15:29:10.231Z,1.20
2022-10-06T15:31:40.163Z,0.77
2022-10-06T15:34:16.381Z,1.00
2022-10-06T15:36:43.720Z,0.88
2022-10-06T15:39:20.232Z,0.75
2022-10-06T15:41:48.653Z,0.60
2022-10-06T15:44:23.801Z,0.88
2022-10-06T15:47:00.382Z,0.90
2022-10-06T15:49:33.519Z,0.75
2022-10-06T15:52:09.419Z,0.82
2022-10-06T15:54:39.818Z,0.60
2022-10-06T15:57:21.237Z,0.60
2022-10-06T15:59:49.309Z,0.60
2022-10-06T16:02:31.418Z,0.60
2022-10-06T16:05:04.873Z,0.60
2022-10-06T16:07:39.630Z,0.65
2022-10-06T16:10:09.050Z,0.68
2022-10-06T16:12:43.531Z,0.55
2022-10-06T16:15:11.226Z,0.65
2022-10-06T16:17:45.340Z,0.52
2022-10-06T16:20:12.541Z,0.50
2022-10-06T16:22:46.295Z,0.50
2022-10-06T16:25:14.376Z,0.40
2022-10-06T16:27:48.150Z,0.70
2022-10-06T16:30:15.369Z,0.50
2022-10-06T16:32:43.481Z,0.40
2022-10-06T16:35:20.048Z,0.60
2022-10-06T16:37:50.225Z,0.32
2022-10-06T16:40:24.316Z,0.43
2022-10-06T16:42:52.561Z,0.40
2022-10-06T16:45:26.347Z,0.35
2022-10-06T16:47:53.627Z,0.50
2022-10-06T16:50:27.173Z,0.60
2022-10-06T16:53:01.241Z,0.70
2022-10-06T16:55:49.407Z,0.45
2022-10-06T16:58:23.423Z,0.50
2022-10-06T17:01:09.272Z,0.50
2022-10-06T17:03:43.568Z,0.60
2022-10-06T17:06:23.217Z,0.73
2022-10-06T17:08:52.888Z,0.50
2022-10-06T17:11:30.258Z,0.52
2022-10-06T17:14:00.812Z,0.70
2022-10-06T17:16:39.197Z,0.73
2022-10-06T17:19:13.114Z,0.73
2022-10-06T17:21:49.786Z,0.75
2022-10-06T17:24:20.222Z,0.70
2022-10-06T17:26:56.305Z,0.75
2022-10-06T17:29:30.237Z,0.80
2022-10-06T17:32:00.458Z,1.75
2022-10-06T17:34:36.478Z,1.15
2022-10-06T17:37:03.999Z,1.20
2022-10-06T17:39:38.287Z,1.13
2022-10-06T17:42:12.217Z,1.30
2022-10-06T17:44:39.676Z,1.10
2022-10-06T17:47:14.299Z,1.55
2022-10-06T17:49:41.421Z,1.38
2022-10-06T17:52:17.835Z,1.20
2022-10-06T17:54:47.814Z,1.60
2022-10-06T17:57:21.379Z,1.40
2022-10-06T17:59:48.811Z,1.30
2022-10-06T18:02:24.289Z,1.58
2022-10-06T18:05:00.367Z,1.13
2022-10-06T18:07:27.392Z,1.30
2022-10-06T18:10:20.570Z,1.73
2022-10-06T18:12:54.497Z,1.50
2022-10-06T18:15:21.720Z,1.60
2022-10-06T18:17:57.132Z,1.40
2022-10-06T18:20:36.313Z,1.60
2022-10-06T18:23:03.934Z,2.00
2022-10-06T18:25:38.514Z,1.70
2022-10-06T18:28:12.527Z,1.55
2022-10-06T18:30:39.955Z,2.20
2022-10-06T18:36:10.460Z,1.67
2022-10-06T18:36:18.195Z,1.42
2022-10-06T18:38:54.530Z,1.92
2022-10-06T18:41:24.855Z,1.58
2022-10-06T18:43:58.249Z,1.70
2022-10-06T18:46:46.017Z,1.40
2022-10-06T18:49:28.183Z,1.75
2022-10-06T18:51:58.455Z,1.70
2022-10-06T18:54:39.752Z,1.75
2022-10-06T18:57:13.262Z,2.00
2022-10-06T18:59:40.755Z,1.88
2022-10-06T19:02:14.661Z,2.00
2022-10-06T19:04:49.686Z,2.10
2022-10-06T19:07:17.700Z,1.88
2022-10-06T19:09:52.376Z,2.00
2022-10-06T19:12:19.651Z,2.03
2022-10-06T19:14:55.599Z,1.70
2022-10-06T19:17:24.719Z,1.70
2022-10-06T19:19:59.453Z,2.08
2022-10-06T19:22:26.769Z,2.00
2022-10-06T19:25:00.248Z,1.90
2022-10-06T19:27:36.309Z,1.75
2022-10-06T19:30:04.497Z,2.17
2022-10-06T19:32:41.749Z,1.50
2022-10-06T19:35:10.543Z,2.22
2022-10-06T19:37:44.541Z,2.03
2022-10-06T19:40:18.663Z,1.40
2022-10-06T19:42:48.698Z,1.52
2022-10-06T19:45:24.370Z,1.25
2022-10-06T19:47:51.903Z,1.60
2022-10-06T19:50:26.165Z,1.75
2022-10-06T19:52:53.304Z,2.30
2022-10-06T19:55:30.865Z,2.10
2022-10-06T19:58:00.713Z,1.70
2022-10-06T20:00:34.662Z,1.73
2022-10-06T20:03:08.845Z,2.08
2022-10-06T20:05:45.369Z,2.30
2022-10-06T20:08:12.733Z,1.95
2022-10-06T20:10:46.413Z,2.40
2022-10-06T20:13:13.928Z,2.55
2022-10-06T20:15:47.428Z,2.88
2022-10-06T20:18:16.163Z,2.25
2022-10-06T20:20:43.813Z,2.33
2022-10-06T20:23:17.629Z,2.85
2022-10-06T20:25:51.274Z,2.83
2022-10-06T20:28:25.341Z,2.42
2022-10-06T20:30:53.451Z,2.60
2022-10-06T20:33:27.289Z,2.13
2022-10-06T20:35:54.516Z,2.72
2022-10-06T20:38:48.428Z,2.95
2022-10-06T20:41:25.376Z,2.78
2022-10-06T20:43:54.437Z,2.55
2022-10-06T20:46:28.286Z,3.05
2022-10-06T20:48:55.846Z,3.20
2022-10-06T20:51:29.236Z,2.60
2022-10-06T20:53:57.616Z,2.70
2022-10-06T20:56:32.228Z,3.03
2022-10-06T20:58:59.667Z,2.95
2022-10-06T21:01:33.292Z,3.05
2022-10-06T21:04:16.441Z,2.70
2022-10-06T21:06:51.308Z,2.88
2022-10-06T21:09:20.674Z,3.10
2022-10-06T21:11:55.326Z,2.97
2022-10-06T21:14:29.406Z,2.42
2022-10-06T21:16:57.350Z,2.85
2022-10-06T21:19:32.251Z,2.67
2022-10-06T21:22:00.802Z,2.05
2022-10-06T21:24:35.280Z,2.38
2022-10-06T21:27:03.339Z,2.60
2022-10-06T21:29:37.309Z,2.10
2022-10-06T21:32:04.531Z,2.30
2022-10-06T21:34:32.197Z,2.47
2022-10-06T21:37:07.490Z,2.35
2022-10-06T21:39:35.032Z,2.13
2022-10-06T21:42:09.272Z,2.45
2022-10-06T21:44:44.258Z,2.60
2022-10-06T21:49:45.338Z,1.83
2022-10-06T21:52:19.424Z,2.55
2022-10-06T21:54:53.387Z,2.42
2022-10-06T21:57:20.764Z,2.38
2022-10-06T21:59:54.488Z,2.28
2022-10-06T22:02:35.455Z,2.83
2022-10-06T22:05:09.172Z,2.60
2022-10-06T22:07:43.455Z,2.75
2022-10-06T22:10:11.270Z,2.67
2022-10-06T22:12:46.555Z,2.55
2022-10-06T22:15:13.822Z,2.25
2022-10-06T22:17:47.363Z,2.65
2022-10-06T22:20:14.822Z,2.75
2022-10-06T22:22:51.811Z,2.25
2022-10-06T22:25:18.985Z,2.72
2022-10-06T22:27:52.549Z,2.40
2022-10-06T22:30:21.112Z,2.88
2022-10-06T22:32:56.324Z,2.28
2022-10-06T22:35:23.554Z,2.35
2022-10-06T22:37:57.380Z,2.67
2022-10-06T22:40:24.661Z,2.75
2022-10-06T22:42:58.333Z,3.28
2022-10-06T22:45:26.779Z,2.75
2022-10-06T22:48:00.695Z,2.97
2022-10-06T22:50:34.359Z,3.20
2022-10-06T22:53:08.714Z,2.58
2022-10-06T22:55:37.009Z,2.90
2022-10-06T22:58:10.289Z,2.45
2022-10-06T23:00:37.904Z,2.90
2022-10-06T23:03:19.435Z,2.92
2022-10-06T23:06:00.861Z,2.28
2022-10-06T23:08:35.624Z,2.67
2022-10-06T23:11:17.729Z,2.97
2022-10-06T23:13:52.380Z,2.85
2022-10-06T23:16:20.717Z,2.58
2022-10-06T23:18:55.340Z,2.90
2022-10-06T23:21:27.725Z,2.75
2022-10-06T23:24:05.303Z,2.58
2022-10-06T23:26:32.543Z,2.30
2022-10-06T23:29:08.379Z,2.53
2022-10-06T23:31:35.722Z,2.67
2022-10-06T23:34:09.339Z,4.13
2022-10-06T23:36:36.438Z,2.95
2022-10-06T23:39:11.575Z,2.83
2022-10-06T23:44:12.460Z,2.97
2022-10-06T23:46:47.757Z,3.42
2022-10-06T23:49:14.968Z,3.38
2022-10-06T23:51:48.538Z,3.03
2022-10-06T23:54:15.628Z,2.70
2022-10-06T23:56:49.348Z,3.28
2022-10-06T23:59:16.658Z,2.70
